This is the latest recevied weather packets stored in our database for station/object KB9HUO. If no packets are shown the sender has not sent any weather packets the latest 1 day(s).
| Time | Temp. | Humidity | Pressure | Rain* | Wind** | Luminosity | Snow |
|---|---|---|---|---|---|---|---|
| 1836274599 | 17.78° C | 87% | 1018.4 hPa | 0 mm | 0 m/s | 0 W/m² | - |
| 1836274452 | 17.78° C | 89% | 1018.6 hPa | 0 mm | 0 m/s | 0 W/m² | - |
| 1836274298 | 17.78° C | 87% | 1018.5 hPa | 0 mm | 0 m/s | 0 W/m² | - |
| 1836274151 | 17.78° C | 88% | 1018.4 hPa | 0 mm | 0 m/s | 0 W/m² | - |
| 1836273996 | 17.78° C | 87% | 1018.4 hPa | 0 mm | 0 m/s | 0 W/m² | - |
| 1778048673 | 8.89° C | 98% | 1009.9 hPa | 1.78 mm | 0 m/s | 0 W/m² | - |
| 1778048369 | 8.89° C | 98% | 1009.9 hPa | 1.78 mm | 0.45 m/s, 288° | 0 W/m² | - |
| 1778048066 | 8.89° C | 98% | 1009.9 hPa | 3.05 mm | 0 m/s | 0 W/m² | - |
| 1778047764 | 8.89° C | 98% | 1009.7 hPa | 3.05 mm | 0.45 m/s, 332° | 0 W/m² | - |
| 1778047462 | 8.89° C | 98% | 1009.5 hPa | 3.05 mm | 0.45 m/s, 343° | 0 W/m² | - |
| 1778047159 | 8.89° C | 98% | 1009.8 hPa | 4.32 mm | 0 m/s | 0 W/m² | - |
| 1778046855 | 8.89° C | 98% | 1009.8 hPa | 6.1 mm | 0.45 m/s, 282° | 0 W/m² | - |
| 1778046552 | 8.89° C | 98% | 1009.7 hPa | 7.11 mm | 0.45 m/s, 284° | 0 W/m² | - |
| 1778046249 | 8.89° C | 98% | 1009.2 hPa | 6.1 mm | 0.89 m/s, 7° | 0 W/m² | - |
| 1778045945 | 8.89° C | 98% | 1010.2 hPa | 6.1 mm | 0.45 m/s, 278° | 0 W/m² | - |
| 1778045644 | 8.89° C | 98% | 1009.8 hPa | 7.87 mm | 1.34 m/s, 318° | 0 W/m² | - |
| 1778045342 | 8.89° C | 98% | 1009.9 hPa | 6.1 mm | 0.45 m/s, 291° | 0 W/m² | - |
| 1778045040 | 9.44° C | 98% | 1009.8 hPa | 6.1 mm | 0 m/s | 0 W/m² | - |
| 1778044738 | 9.44° C | 98% | 1009.9 hPa | 7.11 mm | 0 m/s | 0 W/m² | - |
| 1778044434 | 9.44° C | 98% | 1009.6 hPa | 6.1 mm | 0.89 m/s, 319° | 0 W/m² | - |
| 1778044131 | 9.44° C | 98% | 1009.7 hPa | 3.56 mm | 0.45 m/s, 341° | 0 W/m² | - |
| 1778043829 | 9.44° C | 98% | 1009.6 hPa | 1.78 mm | 0.45 m/s, 301° | 0 W/m² | - |
| 1778043525 | 9.44° C | 98% | 1009.3 hPa | 0 mm | 0.89 m/s, 307° | 0 W/m² | - |
| 1778043222 | 9.44° C | 98% | 1009.1 hPa | 0 mm | 0.89 m/s, 356° | 0 W/m² | - |
| 1778042919 | 9.44° C | 98% | 1009.1 hPa | 1.27 mm | 0.89 m/s, 307° | 0 W/m² | - |
* Rain latest hour (hover to see other rain measurements)
** Current wind speed in m/s (hover to see current wind gust speed)